createdAt,value
2023-02-19T00:00:09.668Z,98794.00
2023-02-19T00:00:19.691Z,98794.00
2023-02-19T00:00:29.688Z,98796.00
2023-02-19T00:00:39.695Z,98794.00
2023-02-19T00:00:49.713Z,98796.00
2023-02-19T00:00:59.722Z,98794.00
2023-02-19T00:01:10.015Z,98794.00
2023-02-19T00:01:19.749Z,98796.00
2023-02-19T00:01:29.751Z,98796.00
2023-02-19T00:01:39.895Z,98796.00
2023-02-19T00:01:49.884Z,98796.00
2023-02-19T00:02:00.004Z,98800.00
2023-02-19T00:02:10.025Z,98800.00
2023-02-19T00:02:20.136Z,98798.00
2023-02-19T00:02:30.134Z,98800.00
2023-02-19T00:02:40.255Z,98800.00
2023-02-19T00:02:50.255Z,98796.00
2023-02-19T00:03:00.255Z,98798.00
2023-02-19T00:03:10.542Z,98796.00
2023-02-19T00:03:20.631Z,98794.00
2023-02-19T00:03:30.744Z,98794.00
2023-02-19T00:03:41.106Z,98794.00
2023-02-19T00:03:51.216Z,98794.00
2023-02-19T00:04:01.234Z,98792.00
2023-02-19T00:04:11.489Z,98790.00
2023-02-19T00:04:21.500Z,98790.00
2023-02-19T00:04:31.511Z,98790.00
2023-02-19T00:04:41.542Z,98788.00
2023-02-19T00:04:51.564Z,98792.00
2023-02-19T00:05:01.650Z,98794.00
2023-02-19T00:05:11.687Z,98792.00
2023-02-19T00:05:21.702Z,98790.00
2023-02-19T00:05:31.826Z,98794.00
2023-02-19T00:05:41.837Z,98792.00
2023-02-19T00:05:52.108Z,98796.00
2023-02-19T00:06:02.117Z,98796.00
2023-02-19T00:06:12.122Z,98794.00
2023-02-19T00:06:22.148Z,98794.00
2023-02-19T00:06:32.168Z,98794.00
2023-02-19T00:06:42.170Z,98792.00
2023-02-19T00:06:52.193Z,98792.00
2023-02-19T00:07:02.208Z,98794.00
2023-02-19T00:07:12.205Z,98796.00
2023-02-19T00:07:22.209Z,98794.00
2023-02-19T00:07:32.602Z,98794.00
2023-02-19T00:07:42.613Z,98796.00
2023-02-19T00:07:52.621Z,98794.00
2023-02-19T00:08:02.652Z,98796.00
2023-02-19T00:08:12.659Z,98800.00
2023-02-19T00:08:22.664Z,98796.00
2023-02-19T00:08:32.677Z,98802.00
2023-02-19T00:08:42.691Z,98802.00
2023-02-19T00:08:52.687Z,98800.00
2023-02-19T00:09:02.709Z,98800.00
2023-02-19T00:09:12.709Z,98800.00
2023-02-19T00:09:22.723Z,98800.00
2023-02-19T00:09:32.721Z,98798.00
2023-02-19T00:09:42.731Z,98796.00
2023-02-19T00:09:52.751Z,98798.00
2023-02-19T00:10:02.768Z,98798.00
2023-02-19T00:10:12.765Z,98796.00
2023-02-19T00:10:22.777Z,98800.00
2023-02-19T00:10:32.787Z,98796.00
2023-02-19T00:10:42.802Z,98796.00
2023-02-19T00:10:52.812Z,98798.00
2023-02-19T00:11:02.819Z,98798.00
2023-02-19T00:11:12.854Z,98798.00
2023-02-19T00:11:22.839Z,98800.00
2023-02-19T00:11:32.848Z,98800.00
2023-02-19T00:11:42.868Z,98802.00
2023-02-19T00:11:52.867Z,98802.00
2023-02-19T00:12:02.874Z,98802.00
2023-02-19T00:12:12.880Z,98804.00
2023-02-19T00:12:22.888Z,98802.00
2023-02-19T00:12:33.021Z,98806.00
2023-02-19T00:12:43.286Z,98804.00
2023-02-19T00:12:53.296Z,98804.00
2023-02-19T00:13:03.292Z,98806.00
2023-02-19T00:13:13.305Z,98808.00
2023-02-19T00:13:23.320Z,98808.00
2023-02-19T00:13:33.341Z,98808.00
2023-02-19T00:13:43.361Z,98808.00
2023-02-19T00:13:53.356Z,98808.00
2023-02-19T00:14:03.361Z,98806.00
2023-02-19T00:14:13.363Z,98808.00
2023-02-19T00:14:23.379Z,98806.00
2023-02-19T00:14:33.394Z,98806.00
2023-02-19T00:14:43.401Z,98804.00
2023-02-19T00:14:53.404Z,98804.00
2023-02-19T00:15:03.407Z,98804.00
2023-02-19T00:15:13.423Z,98802.00
2023-02-19T00:15:23.469Z,98802.00
2023-02-19T00:15:33.509Z,98802.00
2023-02-19T00:15:43.532Z,98804.00
2023-02-19T00:15:53.579Z,98804.00
2023-02-19T00:16:03.679Z,98800.00
2023-02-19T00:16:13.688Z,98800.00
2023-02-19T00:16:23.689Z,98802.00
2023-02-19T00:16:33.718Z,98802.00
2023-02-19T00:16:43.966Z,98800.00
2023-02-19T00:16:53.978Z,98800.00
2023-02-19T00:17:03.975Z,98802.00
2023-02-19T00:17:14.352Z,98798.00
2023-02-19T00:17:24.353Z,98798.00
2023-02-19T00:17:34.373Z,98798.00
2023-02-19T00:17:44.382Z,98798.00
2023-02-19T00:17:54.381Z,98800.00
2023-02-19T00:18:04.390Z,98796.00
2023-02-19T00:18:14.400Z,98800.00
2023-02-19T00:18:24.410Z,98798.00
2023-02-19T00:18:34.426Z,98798.00
2023-02-19T00:18:44.431Z,98798.00
2023-02-19T00:18:54.459Z,98798.00
2023-02-19T00:19:04.458Z,98800.00
2023-02-19T00:19:14.466Z,98800.00
2023-02-19T00:19:24.466Z,98802.00
2023-02-19T00:19:34.476Z,98802.00
2023-02-19T00:19:44.485Z,98802.00
2023-02-19T00:19:54.484Z,98800.00
2023-02-19T00:20:04.490Z,98798.00
2023-02-19T00:20:14.491Z,98800.00
2023-02-19T00:20:24.490Z,98798.00
2023-02-19T00:20:34.608Z,98798.00
2023-02-19T00:20:44.623Z,98796.00
2023-02-19T00:20:54.621Z,98796.00
2023-02-19T00:21:04.626Z,98798.00
2023-02-19T00:21:14.881Z,98796.00
2023-02-19T00:21:24.881Z,98796.00
2023-02-19T00:21:35.005Z,98798.00
2023-02-19T00:21:45.267Z,98798.00
2023-02-19T00:21:55.389Z,98796.00
2023-02-19T00:22:05.393Z,98796.00
2023-02-19T00:22:15.651Z,98800.00
2023-02-19T00:22:25.650Z,98798.00
2023-02-19T00:22:35.658Z,98800.00
2023-02-19T00:22:45.689Z,98798.00
2023-02-19T00:22:55.683Z,98800.00
2023-02-19T00:23:05.693Z,98800.00
2023-02-19T00:23:15.697Z,98800.00
2023-02-19T00:23:25.711Z,98800.00
2023-02-19T00:23:35.713Z,98802.00
2023-02-19T00:23:45.721Z,98800.00
2023-02-19T00:23:56.109Z,98802.00
2023-02-19T00:24:06.103Z,98800.00
2023-02-19T00:24:16.217Z,98802.00
2023-02-19T00:24:26.481Z,98800.00
2023-02-19T00:24:36.479Z,98804.00
2023-02-19T00:24:48.410Z,98802.00
2023-02-19T00:24:56.544Z,98802.00
2023-02-19T00:25:06.542Z,98800.00
2023-02-19T00:25:16.662Z,98798.00
2023-02-19T00:25:26.667Z,98802.00
2023-02-19T00:25:36.781Z,98798.00
2023-02-19T00:25:46.781Z,98802.00
2023-02-19T00:26:03.239Z,98800.00
2023-02-19T00:26:17.597Z,98800.00
2023-02-19T00:26:18.758Z,98796.00
2023-02-19T00:26:26.877Z,98796.00
2023-02-19T00:26:37.002Z,98796.00
2023-02-19T00:26:47.029Z,98798.00
2023-02-19T00:26:57.033Z,98800.00
2023-02-19T00:27:07.031Z,98798.00
2023-02-19T00:27:17.203Z,98796.00
2023-02-19T00:27:27.201Z,98802.00
2023-02-19T00:27:37.328Z,98800.00
2023-02-19T00:27:47.585Z,98798.00
2023-02-19T00:27:57.585Z,98794.00
2023-02-19T00:28:07.583Z,98794.00
2023-02-19T00:28:17.599Z,98796.00
2023-02-19T00:28:27.611Z,98796.00
2023-02-19T00:28:37.618Z,98796.00
2023-02-19T00:28:47.627Z,98798.00
2023-02-19T00:28:57.649Z,98798.00
2023-02-19T00:29:07.653Z,98798.00
2023-02-19T00:29:17.672Z,98800.00
2023-02-19T00:29:27.658Z,98800.00
2023-02-19T00:29:37.670Z,98796.00
2023-02-19T00:29:47.688Z,98794.00
2023-02-19T00:29:57.702Z,98798.00
2023-02-19T00:30:07.752Z,98798.00
2023-02-19T00:30:17.788Z,98798.00
2023-02-19T00:30:27.872Z,98796.00
2023-02-19T00:30:37.870Z,98796.00
2023-02-19T00:30:47.919Z,98794.00
2023-02-19T00:30:57.935Z,98790.00
2023-02-19T00:31:08.333Z,98794.00
2023-02-19T00:31:18.209Z,98794.00
2023-02-19T00:31:29.913Z,98794.00
2023-02-19T00:31:38.322Z,98796.00
2023-02-19T00:31:48.365Z,98794.00
2023-02-19T00:31:58.428Z,98792.00
2023-02-19T00:32:08.441Z,98790.00
2023-02-19T00:32:18.547Z,98790.00
2023-02-19T00:32:28.434Z,98790.00
2023-02-19T00:32:38.572Z,98790.00
2023-02-19T00:32:48.680Z,98792.00
2023-02-19T00:32:58.703Z,98794.00
2023-02-19T00:33:08.991Z,98788.00
2023-02-19T00:33:19.006Z,98790.00
2023-02-19T00:33:29.015Z,98790.00
2023-02-19T00:33:39.016Z,98792.00
2023-02-19T00:33:49.030Z,98790.00
2023-02-19T00:33:59.046Z,98792.00
2023-02-19T00:34:09.050Z,98790.00
2023-02-19T00:34:19.063Z,98790.00
2023-02-19T00:34:29.068Z,98788.00
2023-02-19T00:34:39.079Z,98790.00
2023-02-19T00:34:49.093Z,98790.00
2023-02-19T00:34:59.098Z,98792.00
2023-02-19T00:35:09.100Z,98790.00
2023-02-19T00:35:19.103Z,98792.00
2023-02-19T00:35:29.137Z,98792.00
2023-02-19T00:35:39.141Z,98790.00
2023-02-19T00:35:49.147Z,98790.00
2023-02-19T00:35:59.149Z,98790.00
2023-02-19T00:36:09.167Z,98790.00
2023-02-19T00:36:19.180Z,98788.00
2023-02-19T00:36:29.179Z,98790.00
2023-02-19T00:36:39.332Z,98790.00
2023-02-19T00:36:49.320Z,98786.00
2023-02-19T00:36:59.327Z,98790.00
2023-02-19T00:37:09.587Z,98786.00
2023-02-19T00:37:19.591Z,98790.00
2023-02-19T00:37:29.594Z,98788.00
2023-02-19T00:37:39.592Z,98790.00
2023-02-19T00:37:49.622Z,98786.00
2023-02-19T00:37:59.613Z,98790.00
2023-02-19T00:38:09.618Z,98788.00
2023-02-19T00:38:19.631Z,98786.00
2023-02-19T00:38:29.642Z,98788.00
2023-02-19T00:38:39.647Z,98788.00
2023-02-19T00:38:49.660Z,98788.00
2023-02-19T00:38:59.669Z,98788.00
2023-02-19T00:39:09.683Z,98786.00
2023-02-19T00:39:19.803Z,98790.00
2023-02-19T00:39:29.822Z,98786.00
2023-02-19T00:39:39.937Z,98788.00
2023-02-19T00:39:49.938Z,98790.00
2023-02-19T00:40:00.105Z,98790.00
2023-02-19T00:40:10.120Z,98790.00
2023-02-19T00:40:20.113Z,98790.00
2023-02-19T00:40:30.117Z,98788.00
2023-02-19T00:40:40.238Z,98790.00
2023-02-19T00:40:50.241Z,98792.00
2023-02-19T00:41:00.256Z,98790.00
2023-02-19T00:41:10.543Z,98786.00
2023-02-19T00:41:20.378Z,98784.00
2023-02-19T00:41:30.380Z,98786.00
2023-02-19T00:41:40.553Z,98786.00
2023-02-19T00:41:50.563Z,98786.00
2023-02-19T00:42:00.691Z,98786.00
2023-02-19T00:42:10.946Z,98790.00
2023-02-19T00:42:21.082Z,98788.00
2023-02-19T00:42:31.079Z,98790.00
2023-02-19T00:42:41.345Z,98790.00
2023-02-19T00:42:51.363Z,98788.00
2023-02-19T00:43:01.372Z,98790.00
2023-02-19T00:43:11.382Z,98786.00
2023-02-19T00:43:21.408Z,98794.00
2023-02-19T00:43:31.402Z,98790.00
2023-02-19T00:43:41.424Z,98790.00
2023-02-19T00:43:51.437Z,98788.00
2023-02-19T00:44:01.431Z,98790.00
2023-02-19T00:44:11.442Z,98788.00
2023-02-19T00:44:21.457Z,98788.00
2023-02-19T00:44:31.465Z,98788.00
2023-02-19T00:44:41.468Z,98788.00
2023-02-19T00:44:51.477Z,98788.00
2023-02-19T00:45:01.507Z,98788.00
2023-02-19T00:45:11.502Z,98788.00
2023-02-19T00:45:21.621Z,98786.00
2023-02-19T00:45:31.903Z,98788.00
2023-02-19T00:45:41.894Z,98784.00
2023-02-19T00:45:51.894Z,98786.00
2023-02-19T00:46:02.307Z,98786.00
2023-02-19T00:46:12.431Z,98784.00
2023-02-19T00:46:22.366Z,98786.00
2023-02-19T00:46:32.472Z,98788.00
2023-02-19T00:46:42.540Z,98782.00
2023-02-19T00:46:52.537Z,98784.00
2023-02-19T00:47:02.554Z,98786.00
2023-02-19T00:47:12.568Z,98784.00
2023-02-19T00:47:22.568Z,98786.00
2023-02-19T00:47:32.697Z,98784.00
2023-02-19T00:47:42.966Z,98782.00
2023-02-19T00:47:52.963Z,98784.00
2023-02-19T00:48:02.996Z,98784.00
2023-02-19T00:48:12.981Z,98786.00
2023-02-19T00:48:22.999Z,98786.00
2023-02-19T00:48:33.014Z,98786.00
2023-02-19T00:48:43.021Z,98786.00
2023-02-19T00:48:53.028Z,98790.00
2023-02-19T00:49:03.025Z,98782.00
2023-02-19T00:49:13.028Z,98786.00
2023-02-19T00:49:23.036Z,98788.00
2023-02-19T00:49:33.058Z,98790.00
2023-02-19T00:49:43.051Z,98790.00
2023-02-19T00:49:53.048Z,98792.00
2023-02-19T00:50:03.071Z,98788.00
2023-02-19T00:50:13.064Z,98788.00
2023-02-19T00:50:23.069Z,98788.00
2023-02-19T00:50:33.071Z,98788.00
2023-02-19T00:50:43.080Z,98790.00
2023-02-19T00:50:53.082Z,98788.00
2023-02-19T00:51:03.089Z,98786.00
2023-02-19T00:51:13.104Z,98788.00
2023-02-19T00:51:23.102Z,98788.00
2023-02-19T00:51:33.097Z,98788.00
2023-02-19T00:51:43.104Z,98790.00
2023-02-19T00:51:53.104Z,98788.00
2023-02-19T00:52:03.106Z,98788.00
2023-02-19T00:52:13.123Z,98790.00
2023-02-19T00:52:23.144Z,98786.00
2023-02-19T00:52:33.154Z,98788.00
2023-02-19T00:52:43.156Z,98788.00
2023-02-19T00:52:53.164Z,98786.00
2023-02-19T00:53:03.166Z,98784.00
2023-02-19T00:53:13.182Z,98784.00
2023-02-19T00:53:23.191Z,98784.00
2023-02-19T00:53:33.199Z,98786.00
2023-02-19T00:53:43.222Z,98784.00
2023-02-19T00:53:53.221Z,98784.00
2023-02-19T00:54:03.222Z,98786.00
2023-02-19T00:54:13.237Z,98782.00
2023-02-19T00:54:23.237Z,98784.00
2023-02-19T00:54:33.236Z,98788.00
2023-02-19T00:54:43.248Z,98788.00
2023-02-19T00:54:53.245Z,98784.00
2023-02-19T00:55:03.248Z,98784.00
2023-02-19T00:55:13.639Z,98792.00
2023-02-19T00:55:23.641Z,98788.00
2023-02-19T00:55:33.653Z,98786.00
2023-02-19T00:55:43.662Z,98786.00
2023-02-19T00:55:53.686Z,98786.00
2023-02-19T00:56:03.701Z,98784.00
2023-02-19T00:56:13.690Z,98784.00
2023-02-19T00:56:23.734Z,98786.00
2023-02-19T00:56:33.766Z,98786.00
2023-02-19T00:56:43.760Z,98786.00
2023-02-19T00:56:53.757Z,98788.00
2023-02-19T00:57:03.792Z,98790.00
2023-02-19T00:57:13.798Z,98788.00
2023-02-19T00:57:23.806Z,98786.00
2023-02-19T00:57:33.809Z,98784.00
2023-02-19T00:57:43.812Z,98784.00
2023-02-19T00:57:53.932Z,98784.00
2023-02-19T00:58:04.205Z,98788.00
2023-02-19T00:58:14.218Z,98786.00
2023-02-19T00:58:24.224Z,98788.00
2023-02-19T00:58:34.612Z,98788.00
2023-02-19T00:58:44.602Z,98786.00
2023-02-19T00:58:54.622Z,98786.00
2023-02-19T00:59:04.625Z,98786.00
2023-02-19T00:59:14.653Z,98790.00
2023-02-19T00:59:24.748Z,98790.00
2023-02-19T00:59:34.760Z,98790.00
2023-02-19T00:59:44.768Z,98790.00
2023-02-19T00:59:54.772Z,98790.00
2023-02-19T01:00:04.783Z,98790.00
2023-02-19T01:00:15.054Z,98790.00
2023-02-19T01:00:25.056Z,98790.00
2023-02-19T01:00:35.209Z,98794.00
2023-02-19T01:00:45.472Z,98794.00
2023-02-19T01:00:55.483Z,98794.00
2023-02-19T01:01:05.486Z,98794.00
2023-02-19T01:01:15.562Z,98794.00
2023-02-19T01:01:25.635Z,98796.00
2023-02-19T01:01:35.676Z,98794.00
2023-02-19T01:01:45.741Z,98794.00
2023-02-19T01:01:55.824Z,98796.00
2023-02-19T01:02:05.821Z,98794.00
2023-02-19T01:02:15.950Z,98796.00
2023-02-19T01:02:26.094Z,98792.00
2023-02-19T01:02:36.097Z,98794.00
2023-02-19T01:02:46.087Z,98794.00
2023-02-19T01:02:56.096Z,98796.00
2023-02-19T01:03:06.101Z,98794.00
2023-02-19T01:03:16.229Z,98794.00
2023-02-19T01:03:26.231Z,98798.00
2023-02-19T01:03:36.361Z,98796.00
2023-02-19T01:03:46.395Z,98796.00
2023-02-19T01:03:56.524Z,98798.00
2023-02-19T01:04:06.977Z,98796.00
2023-02-19T01:04:16.621Z,98796.00
2023-02-19T01:04:26.676Z,98796.00
2023-02-19T01:04:36.744Z,98798.00
2023-02-19T01:04:46.828Z,98800.00
2023-02-19T01:04:56.858Z,98800.00
2023-02-19T01:05:06.950Z,98794.00
2023-02-19T01:05:16.972Z,98798.00
2023-02-19T01:05:26.958Z,98798.00
2023-02-19T01:05:36.960Z,98796.00
2023-02-19T01:05:47.220Z,98798.00
2023-02-19T01:05:57.245Z,98796.00
2023-02-19T01:06:07.234Z,98796.00
2023-02-19T01:06:17.250Z,98796.00
2023-02-19T01:06:27.258Z,98794.00
2023-02-19T01:06:37.312Z,98794.00
2023-02-19T01:06:47.301Z,98796.00
2023-02-19T01:06:57.301Z,98796.00
2023-02-19T01:07:10.044Z,98792.00
2023-02-19T01:07:17.442Z,98794.00
2023-02-19T01:07:27.453Z,98794.00
2023-02-19T01:07:37.461Z,98792.00
2023-02-19T01:07:47.470Z,98792.00
2023-02-19T01:07:57.593Z,98794.00
2023-02-19T01:08:07.598Z,98792.00
2023-02-19T01:08:17.660Z,98792.00
2023-02-19T01:08:27.732Z,98794.00
2023-02-19T01:08:37.748Z,98794.00
2023-02-19T01:08:47.948Z,98794.00
2023-02-19T01:08:57.944Z,98794.00
2023-02-19T01:09:07.954Z,98794.00
2023-02-19T01:09:17.969Z,98792.00
2023-02-19T01:09:27.992Z,98792.00
2023-02-19T01:09:37.986Z,98790.00
2023-02-19T01:09:47.989Z,98794.00
2023-02-19T01:09:58.037Z,98792.00
2023-02-19T01:10:08.236Z,98792.00
2023-02-19T01:10:18.100Z,98794.00
2023-02-19T01:10:28.101Z,98790.00
2023-02-19T01:10:38.122Z,98788.00
2023-02-19T01:10:48.122Z,98790.00
2023-02-19T01:10:58.135Z,98794.00
2023-02-19T01:11:08.501Z,98794.00
2023-02-19T01:11:18.228Z,98790.00
2023-02-19T01:11:28.231Z,98790.00
2023-02-19T01:11:38.610Z,98792.00
2023-02-19T01:11:48.609Z,98792.00
2023-02-19T01:11:58.727Z,98792.00
2023-02-19T01:12:08.992Z,98790.00
2023-02-19T01:12:19.004Z,98792.00
2023-02-19T01:12:29.013Z,98792.00
2023-02-19T01:12:39.025Z,98792.00
2023-02-19T01:12:49.037Z,98792.00
2023-02-19T01:12:59.043Z,98792.00
2023-02-19T01:13:09.055Z,98792.00
2023-02-19T01:13:19.060Z,98794.00
2023-02-19T01:13:29.072Z,98794.00
2023-02-19T01:13:39.198Z,98794.00
2023-02-19T01:13:49.442Z,98792.00
2023-02-19T01:13:59.564Z,98794.00
2023-02-19T01:14:09.627Z,98796.00
2023-02-19T01:14:19.888Z,98794.00
2023-02-19T01:14:29.895Z,98796.00
2023-02-19T01:14:39.905Z,98794.00
2023-02-19T01:14:49.902Z,98792.00
2023-02-19T01:15:00.035Z,98794.00
2023-02-19T01:15:10.040Z,98794.00
2023-02-19T01:15:20.038Z,98794.00
2023-02-19T01:15:30.045Z,98794.00
2023-02-19T01:15:40.193Z,98794.00
2023-02-19T01:15:50.251Z,98790.00
2023-02-19T01:16:00.442Z,98792.00
2023-02-19T01:16:10.537Z,98790.00
2023-02-19T01:16:20.523Z,98792.00
2023-02-19T01:16:30.483Z,98792.00
2023-02-19T01:16:40.501Z,98790.00
2023-02-19T01:16:50.504Z,98790.00
2023-02-19T01:17:00.495Z,98790.00
2023-02-19T01:17:10.514Z,98790.00
2023-02-19T01:17:20.515Z,98792.00
2023-02-19T01:17:30.525Z,98790.00
2023-02-19T01:17:40.910Z,98790.00
2023-02-19T01:17:50.907Z,98788.00
2023-02-19T01:18:00.913Z,98786.00
2023-02-19T01:18:10.923Z,98788.00
2023-02-19T01:18:20.947Z,98788.00
2023-02-19T01:18:30.923Z,98786.00
2023-02-19T01:18:41.040Z,98784.00
2023-02-19T01:18:51.047Z,98784.00
2023-02-19T01:19:01.062Z,98782.00
2023-02-19T01:19:11.357Z,98784.00
2023-02-19T01:19:21.361Z,98782.00
2023-02-19T01:19:31.361Z,98782.00
2023-02-19T01:19:41.429Z,98780.00
2023-02-19T01:19:51.441Z,98784.00
2023-02-19T01:20:01.461Z,98782.00
2023-02-19T01:20:11.461Z,98782.00
2023-02-19T01:20:21.485Z,98780.00
2023-02-19T01:20:31.486Z,98780.00
2023-02-19T01:20:41.491Z,98778.00
2023-02-19T01:20:51.501Z,98780.00
2023-02-19T01:21:01.515Z,98780.00
2023-02-19T01:21:11.896Z,98782.00
2023-02-19T01:21:21.602Z,98782.00
2023-02-19T01:21:31.610Z,98782.00
2023-02-19T01:21:41.624Z,98784.00
2023-02-19T01:21:51.624Z,98780.00
2023-02-19T01:22:01.746Z,98782.00
2023-02-19T01:22:12.019Z,98782.00
2023-02-19T01:22:22.027Z,98782.00
2023-02-19T01:22:32.040Z,98782.00
2023-02-19T01:22:42.045Z,98784.00
2023-02-19T01:22:52.057Z,98784.00
2023-02-19T01:23:02.182Z,98784.00
2023-02-19T01:23:12.193Z,98784.00
2023-02-19T01:23:22.209Z,98786.00
2023-02-19T01:23:32.201Z,98786.00
2023-02-19T01:23:42.329Z,98786.00
2023-02-19T01:23:52.463Z,98786.00
2023-02-19T01:24:02.582Z,98786.00
2023-02-19T01:24:12.600Z,98786.00
2023-02-19T01:24:22.854Z,98786.00
2023-02-19T01:24:32.878Z,98786.00
2023-02-19T01:24:42.872Z,98788.00
2023-02-19T01:24:52.876Z,98790.00
2023-02-19T01:25:02.893Z,98788.00
2023-02-19T01:25:12.912Z,98786.00
2023-02-19T01:25:22.916Z,98788.00
2023-02-19T01:25:32.917Z,98788.00
2023-02-19T01:25:42.960Z,98788.00
2023-02-19T01:25:52.969Z,98788.00
2023-02-19T01:26:03.348Z,98790.00
2023-02-19T01:26:13.363Z,98790.00
2023-02-19T01:26:23.396Z,98788.00
2023-02-19T01:26:33.396Z,98790.00
2023-02-19T01:26:43.393Z,98790.00
2023-02-19T01:26:53.395Z,98792.00
2023-02-19T01:27:03.522Z,98792.00
2023-02-19T01:27:13.532Z,98790.00
2023-02-19T01:27:23.530Z,98792.00
2023-02-19T01:27:33.544Z,98792.00
2023-02-19T01:27:43.790Z,98792.00
2023-02-19T01:27:53.801Z,98792.00
2023-02-19T01:28:03.792Z,98794.00
2023-02-19T01:28:13.791Z,98792.00
2023-02-19T01:28:23.919Z,98794.00
2023-02-19T01:28:33.919Z,98794.00
2023-02-19T01:28:44.040Z,98796.00
2023-02-19T01:28:54.051Z,98792.00
2023-02-19T01:29:04.175Z,98794.00
2023-02-19T01:29:14.184Z,98792.00
2023-02-19T01:29:24.173Z,98794.00
2023-02-19T01:29:34.177Z,98794.00
2023-02-19T01:29:44.191Z,98792.00
2023-02-19T01:29:54.575Z,98794.00
2023-02-19T01:30:04.631Z,98792.00
2023-02-19T01:30:14.733Z,98794.00
2023-02-19T01:30:24.922Z,98794.00
2023-02-19T01:30:34.901Z,98794.00
2023-02-19T01:30:44.903Z,98794.00
2023-02-19T01:30:54.993Z,98792.00
2023-02-19T01:31:05.093Z,98790.00
2023-02-19T01:31:15.362Z,98790.00
2023-02-19T01:31:25.415Z,98794.00
2023-02-19T01:31:35.612Z,98796.00
2023-02-19T01:31:45.661Z,98796.00
2023-02-19T01:31:55.664Z,98794.00
2023-02-19T01:32:05.821Z,98796.00
2023-02-19T01:32:15.659Z,98796.00
2023-02-19T01:32:25.718Z,98794.00
2023-02-19T01:32:35.707Z,98792.00
2023-02-19T01:32:45.981Z,98796.00
2023-02-19T01:32:55.976Z,98792.00
2023-02-19T01:33:05.974Z,98794.00
2023-02-19T01:33:15.976Z,98794.00
2023-02-19T01:33:25.987Z,98794.00
2023-02-19T01:33:36.111Z,98794.00
2023-02-19T01:33:46.120Z,98794.00
2023-02-19T01:33:56.249Z,98796.00
2023-02-19T01:34:06.237Z,98792.00
2023-02-19T01:34:16.376Z,98794.00
2023-02-19T01:34:26.371Z,98794.00
2023-02-19T01:34:36.378Z,98794.00
2023-02-19T01:34:46.377Z,98792.00
2023-02-19T01:34:56.770Z,98792.00
2023-02-19T01:35:06.805Z,98790.00
2023-02-19T01:35:16.914Z,98792.00
2023-02-19T01:35:27.183Z,98792.00
2023-02-19T01:35:37.178Z,98790.00
2023-02-19T01:35:47.222Z,98792.00
2023-02-19T01:35:57.243Z,98790.00
2023-02-19T01:36:07.248Z,98792.00
2023-02-19T01:36:17.375Z,98788.00
2023-02-19T01:36:27.379Z,98790.00
2023-02-19T01:36:37.386Z,98790.00
2023-02-19T01:36:47.398Z,98790.00
2023-02-19T01:36:57.401Z,98790.00
2023-02-19T01:37:07.686Z,98790.00
2023-02-19T01:37:17.678Z,98790.00
2023-02-19T01:37:27.689Z,98788.00
2023-02-19T01:37:37.713Z,98790.00
2023-02-19T01:37:47.725Z,98786.00
2023-02-19T01:37:57.715Z,98788.00
2023-02-19T01:38:07.725Z,98792.00
2023-02-19T01:38:17.744Z,98786.00
2023-02-19T01:38:27.774Z,98788.00
2023-02-19T01:38:37.767Z,98790.00
2023-02-19T01:38:47.775Z,98790.00
2023-02-19T01:38:57.778Z,98788.00
2023-02-19T01:39:07.787Z,98786.00
2023-02-19T01:39:17.794Z,98788.00
2023-02-19T01:39:27.816Z,98788.00
2023-02-19T01:39:37.815Z,98786.00
2023-02-19T01:39:47.840Z,98786.00
2023-02-19T01:39:57.837Z,98782.00
2023-02-19T01:40:07.849Z,98782.00
2023-02-19T01:40:17.852Z,98782.00
2023-02-19T01:40:27.898Z,98778.00
2023-02-19T01:40:37.884Z,98778.00
2023-02-19T01:40:47.888Z,98776.00
2023-02-19T01:40:57.903Z,98778.00
2023-02-19T01:41:08.155Z,98776.00
2023-02-19T01:41:17.904Z,98778.00
2023-02-19T01:41:27.905Z,98776.00
2023-02-19T01:41:38.029Z,98776.00
2023-02-19T01:41:48.297Z,98776.00
2023-02-19T01:41:58.424Z,98776.00
2023-02-19T01:42:08.426Z,98776.00
2023-02-19T01:42:18.687Z,98776.00
2023-02-19T01:42:28.692Z,98774.00
2023-02-19T01:42:38.695Z,98774.00
2023-02-19T01:42:48.704Z,98776.00
2023-02-19T01:42:58.726Z,98772.00
2023-02-19T01:43:08.734Z,98772.00
2023-02-19T01:43:18.729Z,98774.00
2023-02-19T01:43:28.748Z,98772.00
2023-02-19T01:43:38.754Z,98772.00
2023-02-19T01:43:48.757Z,98772.00
2023-02-19T01:43:59.151Z,98770.00
2023-02-19T01:44:09.146Z,98768.00
2023-02-19T01:44:19.156Z,98770.00
2023-02-19T01:44:29.178Z,98766.00
2023-02-19T01:44:39.194Z,98766.00
2023-02-19T01:44:49.189Z,98768.00
2023-02-19T01:44:59.190Z,98768.00
2023-02-19T01:45:09.194Z,98768.00
2023-02-19T01:45:19.319Z,98768.00
2023-02-19T01:45:29.322Z,98768.00
2023-02-19T01:45:39.586Z,98766.00
2023-02-19T01:45:49.610Z,98765.00
2023-02-19T01:45:59.597Z,98766.00
2023-02-19T01:46:09.638Z,98766.00
2023-02-19T01:46:19.769Z,98766.00
2023-02-19T01:46:29.821Z,98763.00
2023-02-19T01:46:39.916Z,98765.00
2023-02-19T01:46:50.005Z,98763.00
2023-02-19T01:47:00.001Z,98765.00
2023-02-19T01:47:10.011Z,98766.00
2023-02-19T01:47:20.270Z,98763.00
2023-02-19T01:47:30.279Z,98765.00
2023-02-19T01:47:40.279Z,98763.00
2023-02-19T01:47:50.275Z,98763.00
2023-02-19T01:48:00.303Z,98761.00
2023-02-19T01:48:10.308Z,98761.00
2023-02-19T01:48:20.319Z,98759.00
2023-02-19T01:48:30.321Z,98761.00
2023-02-19T01:48:40.442Z,98759.00
2023-02-19T01:48:50.447Z,98761.00
2023-02-19T01:49:00.709Z,98763.00
2023-02-19T01:49:10.728Z,98759.00
2023-02-19T01:49:20.742Z,98761.00
2023-02-19T01:49:30.756Z,98759.00
2023-02-19T01:49:40.764Z,98761.00
2023-02-19T01:49:50.829Z,98759.00
2023-02-19T01:50:00.844Z,98759.00
2023-02-19T01:50:10.852Z,98757.00
2023-02-19T01:50:21.069Z,98761.00
2023-02-19T01:50:31.069Z,98757.00
2023-02-19T01:50:41.337Z,98757.00
2023-02-19T01:50:51.353Z,98757.00
2023-02-19T01:51:01.358Z,98757.00
2023-02-19T01:51:11.816Z,98755.00
2023-02-19T01:51:21.634Z,98755.00
2023-02-19T01:51:31.657Z,98757.00
2023-02-19T01:51:41.646Z,98755.00
2023-02-19T01:51:51.660Z,98755.00
2023-02-19T01:52:01.789Z,98753.00
2023-02-19T01:52:11.794Z,98753.00
2023-02-19T01:52:21.809Z,98755.00
2023-02-19T01:52:31.878Z,98755.00
2023-02-19T01:52:41.924Z,98751.00
2023-02-19T01:52:51.940Z,98753.00
2023-02-19T01:53:02.272Z,98751.00
2023-02-19T01:53:12.292Z,98753.00
2023-02-19T01:53:22.310Z,98755.00
2023-02-19T01:53:32.300Z,98753.00
2023-02-19T01:53:42.431Z,98751.00
2023-02-19T01:53:52.428Z,98742.00
2023-02-19T01:54:02.549Z,98753.00
2023-02-19T01:54:12.561Z,98753.00
2023-02-19T01:54:22.559Z,98753.00
2023-02-19T01:54:32.566Z,98753.00
2023-02-19T01:54:42.712Z,98753.00
2023-02-19T01:54:52.714Z,98751.00
2023-02-19T01:55:02.740Z,98753.00
2023-02-19T01:55:12.747Z,98753.00
2023-02-19T01:55:22.772Z,98753.00
2023-02-19T01:55:32.759Z,98751.00
2023-02-19T01:55:42.822Z,98753.00
2023-02-19T01:55:52.861Z,98753.00
2023-02-19T01:56:02.850Z,98753.00
2023-02-19T01:56:12.885Z,98753.00
2023-02-19T01:56:23.264Z,98753.00
2023-02-19T01:56:33.267Z,98753.00
2023-02-19T01:56:43.383Z,98753.00
2023-02-19T01:56:53.694Z,98753.00
2023-02-19T01:57:03.671Z,98751.00
2023-02-19T01:57:13.669Z,98742.00
2023-02-19T01:57:23.680Z,98751.00
2023-02-19T01:57:33.689Z,98751.00
2023-02-19T01:57:43.693Z,98751.00
2023-02-19T01:57:53.689Z,98751.00
2023-02-19T01:58:03.823Z,98753.00